createdAt,value
2017-08-25T00:01:00.051Z,5.13
2017-08-25T00:03:28.540Z,6.43
2017-08-25T00:05:56.921Z,5.10
2017-08-25T00:08:25.312Z,5.67
2017-08-25T00:10:53.690Z,5.40
2017-08-25T00:13:23.089Z,5.53
2017-08-25T00:15:51.548Z,5.60
2017-08-25T00:18:20.021Z,5.87
2017-08-25T00:20:48.375Z,6.00
2017-08-25T00:23:16.795Z,5.93
2017-08-25T00:25:45.161Z,6.60
2017-08-25T00:28:13.596Z,7.23
2017-08-25T00:30:42.018Z,5.70
2017-08-25T00:33:10.384Z,5.73
2017-08-25T00:35:39.716Z,5.20
2017-08-25T00:38:08.081Z,5.70
2017-08-25T00:40:36.562Z,5.60
2017-08-25T00:43:04.944Z,6.40
2017-08-25T00:45:33.423Z,6.17
2017-08-25T00:48:01.795Z,6.93
2017-08-25T00:50:30.274Z,6.70
2017-08-25T00:52:58.650Z,6.50
2017-08-25T00:55:27.136Z,6.50
2017-08-25T00:57:55.572Z,6.90
2017-08-25T01:00:25.985Z,6.80
2017-08-25T01:02:54.361Z,7.00
2017-08-25T01:05:22.808Z,6.73
2017-08-25T01:07:51.195Z,6.77
2017-08-25T01:10:28.110Z,7.67
2017-08-25T01:12:58.878Z,6.73
2017-08-25T01:15:27.759Z,7.40
2017-08-25T01:17:56.153Z,7.43
2017-08-25T01:20:24.537Z,7.90
2017-08-25T01:22:53.029Z,7.60
2017-08-25T01:25:21.514Z,6.53
2017-08-25T01:27:50.188Z,6.73
2017-08-25T01:30:18.559Z,6.87
2017-08-25T01:32:46.924Z,6.50
2017-08-25T01:35:17.267Z,7.77
2017-08-25T01:37:47.693Z,6.93
2017-08-25T01:40:18.325Z,8.30
2017-08-25T01:42:51.299Z,6.90
2017-08-25T01:45:26.327Z,6.73
2017-08-25T01:47:56.965Z,5.83
2017-08-25T01:50:29.914Z,7.20
2017-08-25T01:52:58.399Z,8.43
2017-08-25T01:55:33.260Z,8.30
2017-08-25T01:58:01.640Z,7.00
2017-08-25T02:00:31.335Z,7.57
2017-08-25T02:03:04.342Z,7.83
2017-08-25T02:05:35.004Z,6.80
2017-08-25T02:08:10.012Z,7.30
2017-08-25T02:10:38.392Z,7.13
2017-08-25T02:13:10.249Z,8.27
2017-08-25T02:15:42.888Z,8.03
2017-08-25T02:18:11.304Z,7.73
2017-08-25T02:20:41.997Z,7.33
2017-08-25T02:23:10.415Z,7.43
2017-08-25T02:25:38.903Z,8.40
2017-08-25T02:28:07.315Z,6.30
2017-08-25T02:30:35.684Z,8.57
2017-08-25T02:33:05.165Z,8.50
2017-08-25T02:35:33.634Z,8.03
2017-08-25T02:38:02.007Z,9.17
2017-08-25T02:40:30.406Z,9.40
2017-08-25T02:42:58.806Z,10.13
2017-08-25T02:45:27.180Z,10.73
2017-08-25T02:47:55.580Z,10.50
2017-08-25T02:50:23.953Z,11.47
2017-08-25T02:52:52.337Z,12.00
2017-08-25T02:55:20.714Z,11.87
2017-08-25T02:57:49.152Z,11.00
2017-08-25T03:00:17.537Z,12.20
2017-08-25T03:02:48.144Z,11.50
2017-08-25T03:05:22.948Z,13.20
2017-08-25T03:07:51.349Z,13.37
2017-08-25T03:10:22.013Z,12.87
2017-08-25T03:12:50.489Z,12.67
2017-08-25T03:15:18.969Z,13.00
2017-08-25T03:17:47.448Z,12.83
2017-08-25T03:20:15.852Z,11.97
2017-08-25T03:22:44.253Z,13.03
2017-08-25T03:25:12.681Z,13.97
2017-08-25T03:27:41.160Z,13.07
2017-08-25T03:30:09.569Z,13.23
2017-08-25T03:32:38.023Z,12.30
2017-08-25T03:35:06.495Z,14.73
2017-08-25T03:37:34.865Z,13.80
2017-08-25T03:40:03.265Z,11.27
2017-08-25T03:42:31.745Z,12.83
2017-08-25T03:45:01.043Z,12.37
2017-08-25T03:47:29.416Z,12.13
2017-08-25T03:50:00.056Z,12.03
2017-08-25T03:52:28.531Z,12.30
2017-08-25T03:54:57.000Z,12.00
2017-08-25T03:57:25.381Z,11.80
2017-08-25T03:59:53.869Z,11.90
2017-08-25T04:02:22.339Z,14.23
2017-08-25T04:04:50.834Z,11.47
2017-08-25T04:07:19.308Z,12.33
2017-08-25T04:09:47.696Z,12.23
2017-08-25T04:12:16.064Z,11.70
2017-08-25T04:14:44.456Z,12.63
2017-08-25T04:17:12.838Z,11.20
2017-08-25T04:19:41.240Z,13.20
2017-08-25T04:22:14.289Z,12.00
2017-08-25T04:24:42.755Z,11.60
2017-08-25T04:27:15.563Z,10.67
2017-08-25T04:29:46.073Z,11.03
2017-08-25T04:32:16.673Z,13.20
2017-08-25T04:34:47.343Z,10.53
2017-08-25T04:37:17.977Z,11.40
2017-08-25T04:39:46.528Z,10.77
2017-08-25T04:42:14.924Z,11.60
2017-08-25T04:44:45.608Z,12.77
2017-08-25T04:47:16.224Z,11.50
2017-08-25T04:49:46.892Z,11.73
2017-08-25T04:52:15.312Z,11.93
2017-08-25T04:54:48.101Z,12.27
2017-08-25T04:57:18.643Z,11.40
2017-08-25T04:59:47.037Z,11.73
2017-08-25T05:02:15.517Z,14.73
2017-08-25T05:04:50.525Z,13.20
2017-08-25T05:07:21.170Z,13.40
2017-08-25T05:09:51.789Z,12.93
2017-08-25T05:12:20.241Z,12.50
2017-08-25T05:14:53.124Z,12.30
2017-08-25T05:17:23.779Z,11.53
2017-08-25T05:19:54.509Z,14.57
2017-08-25T05:22:25.129Z,12.90
2017-08-25T05:24:55.869Z,12.13
2017-08-25T05:27:24.294Z,13.10
2017-08-25T05:29:52.715Z,13.93
2017-08-25T05:32:21.097Z,12.07
2017-08-25T05:34:49.582Z,15.20
2017-08-25T05:37:17.946Z,14.47
2017-08-25T05:39:50.457Z,13.73
2017-08-25T05:42:20.959Z,13.97
2017-08-25T05:44:49.438Z,12.23
2017-08-25T05:47:17.792Z,11.80
2017-08-25T05:49:46.167Z,14.63
2017-08-25T05:52:14.543Z,14.00
2017-08-25T05:54:42.974Z,14.37
2017-08-25T05:57:11.357Z,12.73
2017-08-25T05:59:39.909Z,13.73
2017-08-25T06:02:08.277Z,13.83
2017-08-25T06:04:36.650Z,12.07
2017-08-25T06:07:05.054Z,12.90
2017-08-25T06:09:33.443Z,11.67
2017-08-25T06:12:01.914Z,13.33
2017-08-25T06:14:30.388Z,12.23
2017-08-25T06:16:58.769Z,12.37
2017-08-25T06:19:27.241Z,12.20
2017-08-25T06:21:55.741Z,11.73
2017-08-25T06:24:24.216Z,11.40
2017-08-25T06:26:52.616Z,12.73
2017-08-25T06:29:21.070Z,11.10
2017-08-25T06:31:49.484Z,11.27
2017-08-25T06:34:17.839Z,10.60
2017-08-25T06:36:46.196Z,9.93
2017-08-25T06:39:14.580Z,10.07
2017-08-25T06:41:42.947Z,8.97
2017-08-25T06:44:11.351Z,10.07
2017-08-25T06:46:39.723Z,9.30
2017-08-25T06:49:08.116Z,8.93
2017-08-25T06:51:36.469Z,8.60
2017-08-25T06:54:04.956Z,7.60
2017-08-25T06:56:33.344Z,8.40
2017-08-25T06:59:01.733Z,9.33
2017-08-25T07:01:30.126Z,6.07
2017-08-25T07:03:58.573Z,7.73
2017-08-25T07:06:28.904Z,7.20
2017-08-25T07:08:57.381Z,6.87
2017-08-25T07:11:25.753Z,6.33
2017-08-25T07:13:54.242Z,6.13
2017-08-25T07:16:22.617Z,6.07
2017-08-25T07:18:51.013Z,6.73
2017-08-25T07:21:19.476Z,5.83
2017-08-25T07:23:47.957Z,6.10
2017-08-25T07:26:16.445Z,5.90
2017-08-25T07:28:44.829Z,5.60
2017-08-25T07:31:13.216Z,5.20
2017-08-25T07:33:43.540Z,5.00
2017-08-25T07:36:13.015Z,5.47
2017-08-25T07:38:41.472Z,4.40
2017-08-25T07:41:09.837Z,3.70
2017-08-25T07:43:38.249Z,4.50
2017-08-25T07:46:06.617Z,4.17
2017-08-25T07:48:35.029Z,3.20
2017-08-25T07:51:03.409Z,4.20
2017-08-25T07:53:31.826Z,2.87
2017-08-25T07:56:00.201Z,4.10
2017-08-25T07:58:28.587Z,3.20
2017-08-25T08:00:58.982Z,3.10
2017-08-25T08:03:27.385Z,3.30
2017-08-25T08:05:55.765Z,3.00
2017-08-25T08:08:24.233Z,2.73
2017-08-25T08:10:52.621Z,2.60
2017-08-25T08:13:21.001Z,2.80
2017-08-25T08:15:50.321Z,3.10
2017-08-25T08:18:18.725Z,2.20
2017-08-25T08:20:48.030Z,2.90
2017-08-25T08:23:16.395Z,3.00
2017-08-25T08:25:45.518Z,2.17
2017-08-25T08:28:13.893Z,2.73
2017-08-25T08:30:44.287Z,3.30
2017-08-25T08:33:12.661Z,2.70
2017-08-25T08:35:41.619Z,2.20
2017-08-25T08:38:10.048Z,1.73
2017-08-25T08:40:38.459Z,3.10
2017-08-25T08:43:06.866Z,1.90
2017-08-25T08:45:35.380Z,2.57
2017-08-25T08:48:04.788Z,2.13
2017-08-25T08:50:33.187Z,2.20
2017-08-25T08:53:02.532Z,2.07
2017-08-25T08:55:30.944Z,2.20
2017-08-25T08:57:59.323Z,1.90
2017-08-25T09:00:27.712Z,2.80
2017-08-25T09:02:56.109Z,1.53
2017-08-25T09:05:24.488Z,1.90
2017-08-25T09:07:52.937Z,2.10
2017-08-25T09:10:21.310Z,2.47
2017-08-25T09:12:50.650Z,2.07
2017-08-25T09:15:19.028Z,2.23
2017-08-25T09:17:47.434Z,2.20
2017-08-25T09:20:15.809Z,2.30
2017-08-25T09:22:44.208Z,2.17
2017-08-25T09:25:12.585Z,1.73
2017-08-25T09:27:40.977Z,2.50
2017-08-25T09:30:09.350Z,2.30
2017-08-25T09:32:37.755Z,2.50
2017-08-25T09:35:06.153Z,2.13
2017-08-25T09:37:35.570Z,2.00
2017-08-25T09:40:04.968Z,2.23
2017-08-25T09:42:33.386Z,2.30
2017-08-25T09:45:01.860Z,2.00
2017-08-25T09:47:31.714Z,2.03
2017-08-25T09:50:01.017Z,2.60
2017-08-25T09:52:29.413Z,3.37
2017-08-25T09:54:57.804Z,3.47
2017-08-25T09:57:26.221Z,3.67
2017-08-25T09:59:54.605Z,3.70
2017-08-25T10:02:23.015Z,4.20
2017-08-25T10:04:51.392Z,3.93
2017-08-25T10:07:21.041Z,4.20
2017-08-25T10:09:49.470Z,4.13
2017-08-25T10:12:22.106Z,3.80
2017-08-25T10:14:52.486Z,2.50
2017-08-25T10:17:20.921Z,2.90
2017-08-25T10:19:50.228Z,3.27
2017-08-25T10:22:18.646Z,2.90
2017-08-25T10:24:47.945Z,3.03
2017-08-25T10:27:16.412Z,3.00
2017-08-25T10:29:44.788Z,2.13
2017-08-25T10:32:14.113Z,2.70
2017-08-25T10:34:49.360Z,3.23
2017-08-25T10:37:24.379Z,3.17
2017-08-25T10:39:58.991Z,2.57
2017-08-25T10:42:33.280Z,2.43
2017-08-25T10:45:09.609Z,2.63
2017-08-25T10:47:41.047Z,2.97
2017-08-25T10:50:11.455Z,2.30
2017-08-25T10:52:39.865Z,2.93
2017-08-25T10:55:08.266Z,2.73
2017-08-25T10:57:36.678Z,2.23
2017-08-25T11:00:05.069Z,2.47
2017-08-25T11:02:33.467Z,2.17
2017-08-25T11:05:02.757Z,2.00
2017-08-25T11:07:32.066Z,2.27
2017-08-25T11:10:00.443Z,2.10
2017-08-25T11:12:29.732Z,1.80
2017-08-25T11:14:58.120Z,1.40
2017-08-25T11:17:26.518Z,1.67
2017-08-25T11:19:55.001Z,1.20
2017-08-25T11:22:23.378Z,1.10
2017-08-25T11:24:52.937Z,1.20
2017-08-25T11:27:25.116Z,1.13
2017-08-25T11:30:01.690Z,1.60
2017-08-25T11:32:30.097Z,1.43
2017-08-25T11:35:03.034Z,2.03
2017-08-25T11:37:33.490Z,1.70
2017-08-25T11:40:11.057Z,1.37
2017-08-25T11:42:44.633Z,1.67
2017-08-25T11:45:14.945Z,1.87
2017-08-25T11:47:45.635Z,1.60
2017-08-25T11:50:16.305Z,1.53
2017-08-25T11:52:45.661Z,1.40
2017-08-25T11:55:18.337Z,4.10
2017-08-25T11:57:46.766Z,1.90
2017-08-25T12:00:17.360Z,2.50
2017-08-25T12:02:47.923Z,1.20
2017-08-25T12:05:18.826Z,1.33
2017-08-25T12:07:49.482Z,1.37
2017-08-25T12:10:17.883Z,1.37
2017-08-25T12:12:46.330Z,1.20
2017-08-25T12:15:17.008Z,1.10
2017-08-25T12:17:48.566Z,1.27
2017-08-25T12:20:18.930Z,0.97
2017-08-25T12:22:52.646Z,1.13
2017-08-25T12:25:27.552Z,1.47
2017-08-25T12:27:58.187Z,0.90
2017-08-25T12:30:28.288Z,1.33
2017-08-25T12:33:01.751Z,0.87
2017-08-25T12:35:38.469Z,1.03
2017-08-25T12:38:08.486Z,0.80
2017-08-25T12:40:37.889Z,1.00
2017-08-25T12:43:13.985Z,1.00
2017-08-25T12:45:47.623Z,1.10
2017-08-25T12:48:18.770Z,1.00
2017-08-25T12:50:47.213Z,0.90
2017-08-25T12:53:22.141Z,1.03
2017-08-25T12:55:52.753Z,1.10
2017-08-25T12:58:25.573Z,1.27
2017-08-25T13:00:54.026Z,1.30
2017-08-25T13:03:28.794Z,0.80
2017-08-25T13:05:59.155Z,0.80
2017-08-25T13:08:29.804Z,1.10
2017-08-25T13:11:00.421Z,1.47
2017-08-25T13:13:28.881Z,1.07
2017-08-25T13:15:57.476Z,0.80
2017-08-25T13:18:29.165Z,0.90
2017-08-25T13:20:57.564Z,1.50
2017-08-25T13:23:25.983Z,1.17
2017-08-25T13:26:00.580Z,1.40
2017-08-25T13:28:31.872Z,1.30
2017-08-25T13:31:00.289Z,0.90
2017-08-25T13:33:28.730Z,0.83
2017-08-25T13:36:03.831Z,1.37
